This is the latest recevied weather packets stored in our database for station/object KI5NYZ-13. If no packets are shown the sender has not sent any weather packets the latest 10 day(s).
| Time | Temp. | Humidity | Pressure | Rain* | Wind** | Luminosity | Snow |
|---|---|---|---|---|---|---|---|
| 1777782796 | 12.78° C | 72% | 1021.2 hPa | 0 mm | - | - | - |
| 1777780995 | 13.33° C | 67% | 1020.8 hPa | 0 mm | - | - | - |
| 1777779194 | 13.89° C | 64% | 1020.4 hPa | 0 mm | - | - | - |
| 1777777393 | 15° C | 58% | 1019.6 hPa | 0 mm | - | - | - |
| 1777775592 | 15.56° C | 54% | 1019.1 hPa | 0 mm | - | - | - |
| 1777773791 | 16.11° C | 51% | 1018.7 hPa | 0 mm | - | - | - |
| 1777771990 | 17.78° C | 45% | 1018 hPa | 0 mm | - | - | - |
| 1777770190 | 18.89° C | 39% | 1017.6 hPa | 0 mm | - | - | - |
| 1777768388 | 20° C | 36% | 1017.1 hPa | 0 mm | - | - | - |
| 1777766587 | 20° C | 36% | 1017.2 hPa | 0 mm | - | - | - |
| 1777764787 | 20° C | 35% | 1017.1 hPa | 0 mm | - | - | - |
| 1777762985 | 20° C | 36% | 1017.3 hPa | 0 mm | - | - | - |
| 1777761184 | 20.56° C | 34% | 1017.1 hPa | 0 mm | - | - | - |
| 1777759383 | 19.44° C | 37% | 1018 hPa | 0 mm | - | - | - |
| 1777757583 | 18.89° C | 38% | 1018.6 hPa | 0 mm | - | - | - |
| 1777755781 | 18.89° C | 39% | 1019.2 hPa | 0 mm | - | - | - |
| 1777753981 | 19.44° C | 38% | 1019.1 hPa | 0 mm | - | - | - |
| 1777752179 | 18.89° C | 39% | 1019.7 hPa | 0 mm | - | - | - |
| 1777750378 | 17.78° C | 41% | 1020.3 hPa | 0 mm | - | - | - |
| 1777748578 | 18.33° C | 41% | 1020.4 hPa | 0 mm | - | - | - |
| 1777746776 | 17.78° C | 42% | 1020.9 hPa | 0 mm | - | - | - |
| 1777744975 | 17.78° C | 45% | 1021.4 hPa | 0 mm | - | - | - |
| 1777743175 | 16.67° C | 45% | 1022 hPa | 0 mm | - | - | - |
| 1777741373 | 16.11° C | 50% | 1022.3 hPa | 0 mm | - | - | - |
| 1777739572 | 15° C | 55% | 1022.8 hPa | 0 mm | - | - | - |
* Rain latest hour (hover to see other rain measurements)
** Current wind speed in m/s (hover to see current wind gust speed)